Rockwall's Hourly Summary for Saturday, May 12, 2018
Hour Temp
(f)
RH
(%)
Solar Rad.
(MJ/m2)
Rainfall
(in)
Wind
(mph)
5/12/2018 12:00 AM 75 61 0 0 6.56
5/12/2018 1:00 AM 74 69 0 0 8.13
5/12/2018 2:00 AM 75 71 0 0 9.33
5/12/2018 3:00 AM 73 74 0 0 8.57
5/12/2018 4:00 AM 72 78 0 0 6.88
5/12/2018 5:00 AM 72 81 0 0 7.25
5/12/2018 6:00 AM 72 81 0 0 6.19
5/12/2018 7:00 AM 72 82 0.02 0 5.61
5/12/2018 8:00 AM 72 84 0.44 0 4.54
5/12/2018 9:00 AM 74 78 0.81 0 6.45
5/12/2018 10:00 AM 76 71 1.39 0 6.87
5/12/2018 11:00 AM 78 65 1.95 0 7.26
5/12/2018 12:00 PM 81 57 2.41 0 7.29
5/12/2018 1:00 PM 83 52 2.42 0 6.96
5/12/2018 2:00 PM 84 48 2.61 0 7.38
5/12/2018 3:00 PM 85 46 2.46 0 7.11
5/12/2018 4:00 PM 86 45 2.05 0 7.46
5/12/2018 5:00 PM 86 45 1.84 0 7.35
5/12/2018 6:00 PM 86 46 1.45 0 7.89
5/12/2018 7:00 PM 85 45 0.44 0 6.75
5/12/2018 8:00 PM 83 50 0.09 0 4.8
5/12/2018 9:00 PM 81 54 0.01 0 2.46
5/12/2018 10:00 PM 79 59 0 0 2.96
5/12/2018 11:00 PM 77 64 0 0 3.42
Data Summary 78 62 20.39 0.00 6.48